Time;durP1;ratioP1;P1;durP2;ratioP2;P2;SDS_P1;SDS_P2;PMS_P1;PMS_P2;Temp;Humidity;BMP_temperature;BMP_pressure;BME280_temperature;BME280_humidity;BME280_pressure;Samples;Min_cycle;Max_cycle;Signal;HPM_P1;HPM_P2
2021/06/08 00:00:11;;;;;;;13.00;8.83;;;;;;;15.57;62.85;100908.37;1745362;80;26647;-77
2021/06/08 00:02:42;;;;;;;15.18;7.67;;;;;;;15.52;62.80;100908.70;1725918;81;25901;-76
2021/06/08 00:05:10;;;;;;;9.55;8.65;;;;;;;15.49;62.92;100903.20;1707299;80;25822;-77
2021/06/08 00:07:37;;;;;;;12.25;9.05;;;;;;;15.48;62.96;100904.27;1741432;80;28205;-78
2021/06/08 00:10:06;;;;;;;10.43;8.70;;;;;;;15.47;62.97;100899.89;1778622;78;26362;-77
2021/06/08 00:12:33;;;;;;;12.18;8.38;;;;;;;15.44;62.85;100898.44;1758258;78;26467;-77
2021/06/08 00:15:00;;;;;;;10.50;8.98;;;;;;;15.46;63.12;100902.81;1760171;80;25878;-77
2021/06/08 00:17:27;;;;;;;13.83;8.38;;;;;;;15.41;63.13;100898.84;1780431;78;26164;-78
2021/06/08 00:19:54;;;;;;;9.33;8.43;;;;;;;15.34;63.29;100893.97;1775119;80;28229;-78
2021/06/08 00:22:21;;;;;;;10.65;7.97;;;;;;;15.33;63.15;100903.09;1721842;80;25938;-76
2021/06/08 00:24:48;;;;;;;11.88;8.85;;;;;;;15.29;63.42;100891.60;1746111;80;25868;-76
2021/06/08 00:27:15;;;;;;;10.08;8.83;;;;;;;15.22;63.62;100890.26;1784550;78;25893;-77
2021/06/08 00:29:43;;;;;;;11.22;8.75;;;;;;;15.19;63.62;100893.88;1772805;78;26481;-77
2021/06/08 00:32:10;;;;;;;9.58;8.45;;;;;;;15.16;63.50;100887.56;1731379;80;27306;-78
2021/06/08 00:34:37;;;;;;;9.60;8.55;;;;;;;15.12;63.68;100890.38;1740269;78;26390;-77
2021/06/08 00:37:04;;;;;;;10.60;8.43;;;;;;;15.10;63.91;100891.08;1774309;78;26476;-78
2021/06/08 00:39:31;;;;;;;11.08;7.78;;;;;;;15.06;64.00;100886.62;1773180;78;25907;-77
2021/06/08 00:41:58;;;;;;;9.53;7.58;;;;;;;15.02;63.70;100892.64;1722280;78;25852;-77
2021/06/08 00:44:25;;;;;;;13.43;7.90;;;;;;;14.93;63.67;100887.98;1731986;78;27324;-76
2021/06/08 00:46:52;;;;;;;11.93;8.75;;;;;;;14.83;63.79;100883.53;1781215;78;25916;-76
2021/06/08 00:49:19;;;;;;;12.95;8.70;;;;;;;14.77;64.12;100883.53;1775442;78;25916;-77
2021/06/08 00:51:46;;;;;;;11.08;8.90;;;;;;;14.73;64.27;100887.67;1709947;78;26472;-77
2021/06/08 00:54:13;;;;;;;13.48;7.97;;;;;;;14.69;64.43;100880.53;1740646;78;26505;-77
2021/06/08 00:56:45;;;;;;;10.50;8.85;;;;;;;14.59;64.24;100876.88;1783978;78;27635;-77
2021/06/08 00:59:13;;;;;;;10.43;9.28;;;;;;;14.51;64.32;100882.98;1766502;78;25922;-77
2021/06/08 01:01:41;;;;;;;11.15;8.40;;;;;;;14.45;64.41;100886.51;1747466;80;25321;-77
2021/06/08 01:04:10;;;;;;;9.58;8.63;;;;;;;14.42;64.35;100888.25;1702180;78;26640;-76
2021/06/08 01:06:39;;;;;;;10.75;8.15;;;;;;;14.34;64.51;100881.20;1783172;78;25842;-76
2021/06/08 01:09:08;;;;;;;12.23;8.70;;;;;;;14.30;64.65;100884.50;1773341;80;27144;-77
2021/06/08 01:11:36;;;;;;;12.80;8.13;;;;;;;14.27;64.79;100878.13;1736654;80;25856;-77
2021/06/08 01:14:03;;;;;;;12.73;8.73;;;;;;;14.25;64.85;100878.85;1729662;78;25923;-79
2021/06/08 01:16:32;;;;;;;10.68;8.98;;;;;;;14.27;65.09;100875.44;1771262;78;25911;-77
2021/06/08 01:19:00;;;;;;;10.13;9.13;;;;;;;14.26;65.06;100877.83;1773105;80;25888;-77
2021/06/08 01:21:28;;;;;;;10.70;9.30;;;;;;;14.24;65.08;100879.91;1749908;80;28257;-77
2021/06/08 01:23:56;;;;;;;8.85;7.87;;;;;;;14.15;65.09;100869.83;1748587;78;25816;-76
2021/06/08 01:26:28;;;;;;;11.12;9.68;;;;;;;14.11;65.15;100877.17;1770859;78;26055;-78
2021/06/08 01:28:58;;;;;;;14.28;9.80;;;;;;;14.05;65.24;100873.41;1775906;78;25866;-77
2021/06/08 01:31:28;;;;;;;11.65;9.38;;;;;;;13.98;65.16;100875.77;1775417;78;25817;-77
2021/06/08 01:33:57;;;;;;;15.37;8.97;;;;;;;13.91;65.34;100878.44;1772486;78;27263;-76
2021/06/08 01:36:26;;;;;;;10.38;8.90;;;;;;;13.87;65.30;100875.84;1773561;78;25682;-77
2021/06/08 01:38:54;;;;;;;10.23;9.20;;;;;;;13.80;65.31;100874.47;1772873;78;25281;-77
2021/06/08 01:41:24;;;;;;;10.40;9.33;;;;;;;13.77;65.65;100877.55;1743871;78;25888;-77
2021/06/08 01:43:53;;;;;;;11.50;10.30;;;;;;;13.76;65.71;100876.41;1721440;80;25866;-76
2021/06/08 01:46:22;;;;;;;11.83;10.08;;;;;;;13.72;65.95;100873.30;1776084;78;27434;-77
2021/06/08 01:48:51;;;;;;;11.10;10.00;;;;;;;13.71;66.01;100877.52;1779152;78;26495;-77
2021/06/08 01:51:52;;;;;;;13.28;10.40;;;;;;;13.69;66.20;100883.11;1714849;80;25807;-77
2021/06/08 01:54:43;;;;;;;12.45;10.05;;;;;;;13.65;66.22;100884.55;1713892;81;26960;-77
2021/06/08 01:57:43;;;;;;;12.60;9.90;;;;;;;13.61;66.37;100881.10;1750927;81;25864;-77
2021/06/08 02:00:23;;;;;;;11.85;9.83;;;;;;;13.55;66.31;100879.21;1660274;85;28517;-77
2021/06/08 02:02:59;;;;;;;11.97;10.28;;;;;;;13.49;66.30;100880.85;1724659;80;33693;-77
2021/06/08 02:05:50;;;;;;;11.03;9.80;;;;;;;13.45;66.55;100886.28;1750693;78;25985;-78
2021/06/08 02:08:39;;;;;;;11.93;10.13;;;;;;;13.45;66.39;100891.67;1771484;80;25731;-77
2021/06/08 02:11:33;;;;;;;11.75;10.23;;;;;;;13.42;66.49;100889.39;1788026;78;25768;-77
2021/06/08 02:14:17;;;;;;;11.20;10.05;;;;;;;13.41;66.62;100886.91;1757548;80;27500;-77
2021/06/08 02:16:55;;;;;;;12.45;10.75;;;;;;;13.35;66.70;100881.78;1711082;80;25924;-77
2021/06/08 02:19:24;;;;;;;11.30;10.10;;;;;;;13.35;66.93;100882.29;1776656;78;25815;-77
2021/06/08 02:21:58;;;;;;;14.65;10.65;;;;;;;13.35;67.03;100883.64;1769284;78;26415;-77
2021/06/08 02:24:28;;;;;;;12.88;10.48;;;;;;;13.31;66.88;100893.97;1737391;80;26008;-77
2021/06/08 02:27:06;;;;;;;13.28;11.18;;;;;;;13.26;66.89;100891.57;1731760;80;28084;-77
2021/06/08 02:29:34;;;;;;;14.15;10.23;;;;;;;13.22;67.03;100898.34;1767560;80;25812;-77
2021/06/08 02:32:03;;;;;;;15.65;10.35;;;;;;;13.18;67.01;100891.70;1786855;78;25484;-76
2021/06/08 02:34:31;;;;;;;12.65;11.35;;;;;;;13.13;66.92;100890.94;1737798;78;25862;-76
2021/06/08 02:36:59;;;;;;;13.10;11.70;;;;;;;13.10;67.06;100896.73;1736335;78;26557;-77
2021/06/08 02:39:28;;;;;;;13.90;11.43;;;;;;;13.10;67.24;100898.07;1764691;78;27567;-76
2021/06/08 02:41:57;;;;;;;14.55;12.65;;;;;;;13.07;67.52;100897.95;1777112;78;25794;-77
2021/06/08 02:44:26;;;;;;;13.28;11.88;;;;;;;13.06;67.46;100900.84;1695210;80;25814;-77
2021/06/08 02:46:55;;;;;;;14.30;11.60;;;;;;;13.04;67.44;100898.83;1747934;80;25798;-77
2021/06/08 02:49:23;;;;;;;11.73;10.63;;;;;;;12.97;67.25;100902.80;1770508;80;26531;-77
2021/06/08 02:51:50;;;;;;;11.80;10.53;;;;;;;12.91;67.30;100901.41;1779887;78;27486;-77
2021/06/08 02:54:19;;;;;;;16.97;11.00;;;;;;;12.87;67.51;100900.94;1721395;80;26674;-77
2021/06/08 02:56:48;;;;;;;11.53;10.40;;;;;;;12.86;67.58;100901.14;1729971;78;25948;-77
2021/06/08 02:59:16;;;;;;;11.68;10.48;;;;;;;12.83;67.66;100903.70;1777314;78;26474;-77
2021/06/08 03:01:53;;;;;;;14.53;11.53;;;;;;;12.84;67.77;100904.55;1771027;80;25758;-78
2021/06/08 03:04:23;;;;;;;12.73;11.40;;;;;;;12.89;68.07;100911.02;1746563;78;28172;-76
2021/06/08 03:06:57;;;;;;;14.73;12.68;;;;;;;12.91;68.37;100914.34;1719810;80;32593;-78
2021/06/08 03:09:38;;;;;;;13.25;11.83;;;;;;;12.89;68.31;100919.59;1770989;78;25783;-77
2021/06/08 03:12:12;;;;;;;15.45;11.55;;;;;;;12.85;68.50;100925.84;1775603;78;25868;-77
2021/06/08 03:14:43;;;;;;;13.90;12.43;;;;;;;12.85;68.61;100924.50;1772007;78;25858;-77
2021/06/08 03:17:13;;;;;;;14.55;11.90;;;;;;;12.85;68.71;100925.84;1740905;80;26887;-77
2021/06/08 03:19:44;;;;;;;12.85;11.55;;;;;;;12.87;68.70;100922.45;1767316;80;26029;-77
2021/06/08 03:22:18;;;;;;;12.93;11.63;;;;;;;12.94;69.13;100928.72;1772851;78;25792;-77
2021/06/08 03:24:49;;;;;;;12.80;10.60;;;;;;;12.99;69.00;100928.15;1717181;80;25945;-77
2021/06/08 03:27:17;;;;;;;;;;;;;;;13.02;68.99;100929.12;1749836;80;25746;-76
2021/06/08 03:29:45;;;;;;;11.30;10.28;;;;;;;13.07;68.88;100932.06;1768108;78;27051;-77
2021/06/08 03:32:13;;;;;;;10.45;9.50;;;;;;;13.10;68.83;100933.88;1687970;82;25887;-77
2021/06/08 03:34:41;;;;;;;13.20;10.35;;;;;;;13.17;68.70;100933.09;1746060;78;25860;-77
2021/06/08 03:37:10;;;;;;;15.25;11.35;;;;;;;13.21;68.70;100929.81;1745710;80;25891;-77
2021/06/08 03:39:38;;;;;;;12.88;10.90;;;;;;;13.30;68.76;100937.22;1758168;78;26606;-77
2021/06/08 03:42:07;;;;;;;13.58;10.48;;;;;;;13.34;68.74;100935.30;1782130;78;28222;-77
2021/06/08 03:44:35;;;;;;;11.57;10.38;;;;;;;13.39;68.89;100934.67;1753658;78;25795;-77
2021/06/08 03:47:03;;;;;;;13.53;10.45;;;;;;;13.44;68.96;100938.97;1716970;81;26849;-79
2021/06/08 03:49:32;;;;;;;13.25;10.55;;;;;;;13.49;69.25;100937.88;1720830;80;25913;-77
2021/06/08 03:51:59;;;;;;;22.60;10.95;;;;;;;13.54;69.17;100940.27;1737728;80;25762;-77
2021/06/08 03:54:26;;;;;;;13.55;9.98;;;;;;;13.59;69.30;100936.48;1689378;83;28381;-77
2021/06/08 03:56:56;;;;;;;11.10;9.85;;;;;;;13.61;69.43;100942.50;1659986;81;26228;-76
2021/06/08 03:59:27;;;;;;;10.35;9.35;;;;;;;13.63;69.32;100935.06;1772308;78;25923;-77
2021/06/08 04:01:55;;;;;;;10.88;9.78;;;;;;;13.68;69.40;100943.38;1778544;78;26450;-77
2021/06/08 04:04:23;;;;;;;10.65;9.60;;;;;;;13.78;69.57;100940.31;1747723;78;26595;-78
2021/06/08 04:06:51;;;;;;;10.75;9.58;;;;;;;13.93;69.83;100941.84;1710996;82;28278;-77
2021/06/08 04:09:18;;;;;;;10.30;8.73;;;;;;;14.10;69.87;100939.63;1774343;78;25868;-77
2021/06/08 04:11:51;;;;;;;10.53;8.73;;;;;;;14.22;69.80;100934.51;1782753;78;25676;-77
2021/06/08 04:14:20;;;;;;;9.48;8.53;;;;;;;14.34;69.81;100935.09;1760758;78;25863;-77
2021/06/08 04:16:48;;;;;;;10.72;8.55;;;;;;;14.48;69.80;100937.30;1755638;78;25984;-77
2021/06/08 04:19:15;;;;;;;11.03;7.83;;;;;;;14.58;69.65;100941.80;1778936;78;28180;-78
2021/06/08 04:21:43;;;;;;;10.23;8.10;;;;;;;14.70;69.47;100940.14;1777134;78;26035;-77
2021/06/08 04:24:11;;;;;;;11.80;8.13;;;;;;;14.78;69.24;100941.29;1734150;78;25882;-77
2021/06/08 04:26:39;;;;;;;13.65;8.70;;;;;;;14.88;69.27;100947.13;1735118;80;25851;-77
2021/06/08 04:29:07;;;;;;;9.40;8.00;;;;;;;14.98;69.11;100939.97;1776349;78;25753;-77
2021/06/08 04:31:35;;;;;;;9.33;7.47;;;;;;;15.08;69.14;100945.77;1795849;79;27635;-77
2021/06/08 04:34:03;;;;;;;10.23;7.53;;;;;;;15.14;68.83;100945.77;1740112;80;25675;-77
2021/06/08 04:36:30;;;;;;;9.95;8.20;;;;;;;15.16;68.81;100949.63;1723029;82;25878;-78
2021/06/08 04:38:57;;;;;;;11.93;7.87;;;;;;;15.22;69.17;100951.49;1729364;80;25845;-78
2021/06/08 04:41:25;;;;;;;10.60;8.48;;;;;;;15.28;69.27;100943.39;1734529;80;25938;-78
2021/06/08 04:43:52;;;;;;;14.60;8.05;;;;;;;15.37;69.03;100951.59;1711305;82;28267;-76
2021/06/08 04:46:19;;;;;;;12.43;8.18;;;;;;;15.46;69.29;100950.05;1718743;82;26569;-77
2021/06/08 04:48:46;;;;;;;11.05;8.18;;;;;;;15.51;69.02;100948.38;1702197;81;25770;-78
2021/06/08 04:51:13;;;;;;;10.25;8.00;;;;;;;15.60;69.29;100943.06;1740406;80;25999;-77
2021/06/08 04:53:41;;;;;;;9.48;7.42;;;;;;;15.67;68.89;100948.45;1726733;78;26287;-77
2021/06/08 04:56:09;;;;;;;10.23;7.33;;;;;;;15.74;69.00;100946.03;1726148;78;27552;-77
2021/06/08 04:58:37;;;;;;;11.48;7.65;;;;;;;15.83;68.96;100943.92;1789204;79;25732;-77
2021/06/08 05:01:16;;;;;;;10.70;7.45;;;;;;;15.91;68.67;100946.42;1769401;80;25974;-78
2021/06/08 05:03:48;;;;;;;11.20;7.60;;;;;;;16.00;68.71;100944.61;1718716;80;26532;-78
2021/06/08 05:06:29;;;;;;;9.38;7.50;;;;;;;16.11;68.71;100945.30;1772461;78;25896;-77
2021/06/08 05:09:01;;;;;;;8.90;7.00;;;;;;;16.19;68.67;100949.09;1765014;80;27592;-78
2021/06/08 05:11:54;;;;;;;7.30;6.60;;;;;;;16.31;68.80;100941.67;1768274;78;25826;-78
2021/06/08 05:14:24;;;;;;;10.13;7.62;;;;;;;16.37;68.75;100945.69;1739434;78;25703;-78
2021/06/08 05:16:52;;;;;;;9.05;7.00;;;;;;;16.46;68.65;100936.30;1789950;78;26462;-76
2021/06/08 05:19:20;;;;;;;10.88;6.80;;;;;;;16.56;68.47;100939.38;1798347;78;26089;-76
2021/06/08 05:21:48;;;;;;;10.88;6.78;;;;;;;16.65;68.26;100935.89;1768707;78;27545;-77
2021/06/08 05:24:17;;;;;;;9.55;7.42;;;;;;;16.74;67.95;100940.00;1744202;80;25803;-77
2021/06/08 05:26:47;;;;;;;10.50;6.67;;;;;;;16.80;67.96;100935.89;1752359;78;25777;-77
2021/06/08 05:29:24;;;;;;;7.90;6.72;;;;;;;16.89;67.89;100935.10;1788518;79;25802;-77
2021/06/08 05:31:56;;;;;;;7.10;6.35;;;;;;;17.00;68.28;100934.36;1784246;78;25803;-77
2021/06/08 05:34:23;;;;;;;12.10;6.95;;;;;;;17.13;68.09;100930.20;1723191;80;27354;-77
2021/06/08 05:36:50;;;;;;;7.10;6.40;;;;;;;17.24;68.29;100934.06;1738491;80;25980;-77
2021/06/08 05:39:17;;;;;;;8.65;5.90;;;;;;;17.37;67.53;100930.72;1712576;82;25739;-77
2021/06/08 05:41:45;;;;;;;8.90;6.58;;;;;;;17.49;67.26;100935.69;1773785;78;25848;-77
2021/06/08 05:44:14;;;;;;;6.22;5.62;;;;;;;17.62;66.91;100932.89;1756307;80;25815;-77
2021/06/08 05:46:41;;;;;;;8.90;5.90;;;;;;;17.73;66.38;100936.20;1751122;78;28317;-76
2021/06/08 05:49:10;;;;;;;7.08;6.33;;;;;;;17.87;66.38;100936.06;1767962;78;25790;-77
2021/06/08 05:51:38;;;;;;;8.70;5.95;;;;;;;18.00;66.43;100934.04;1748301;80;25811;-76
2021/06/08 05:54:10;;;;;;;7.37;5.67;;;;;;;18.10;66.00;100934.84;1746852;80;25795;-77
2021/06/08 05:56:38;;;;;;;6.85;6.15;;;;;;;18.25;66.29;100937.98;1745727;80;25836;-77
2021/06/08 05:59:07;;;;;;;8.58;6.03;;;;;;;18.38;65.48;100945.43;1771081;78;27584;-78
2021/06/08 06:01:35;;;;;;;8.78;5.55;;;;;;;18.48;65.13;100941.66;1770078;78;25868;-76
2021/06/08 06:04:02;;;;;;;8.25;6.28;;;;;;;18.58;64.87;100947.91;1744348;78;25330;-78
2021/06/08 06:06:29;;;;;;;7.30;5.72;;;;;;;18.66;64.85;100946.74;1741315;80;25835;-77
2021/06/08 06:08:56;;;;;;;13.15;6.25;;;;;;;18.74;64.70;100936.91;1795292;78;26012;-77
2021/06/08 06:11:26;;;;;;;7.03;4.80;;;;;;;18.84;64.25;100943.98;1771507;78;27470;-78
2021/06/08 06:14:04;;;;;;;9.20;6.05;;;;;;;18.92;63.97;100944.99;1751034;80;25869;-77
2021/06/08 06:16:34;;;;;;;6.87;5.95;;;;;;;18.99;63.88;100947.88;1768329;78;25835;-77
2021/06/08 06:19:07;;;;;;;;;;;;;;;19.14;63.98;100944.19;1780555;78;26485;-77
2021/06/08 06:21:34;;;;;;;8.58;6.20;;;;;;;19.31;64.62;100940.24;1785518;78;25909;-78
2021/06/08 06:24:03;;;;;;;7.37;5.37;;;;;;;19.39;63.80;100939.95;1767854;78;27559;-77
2021/06/08 06:26:33;;;;;;;5.95;5.37;;;;;;;19.48;63.24;100947.22;1771965;78;25803;-77
2021/06/08 06:29:00;;;;;;;9.55;5.37;;;;;;;19.57;63.54;100937.62;1781948;78;26630;-77
2021/06/08 06:31:27;;;;;;;10.98;6.05;;;;;;;19.69;63.49;100943.89;1790540;78;26499;-77
2021/06/08 06:33:56;;;;;;;8.25;6.22;;;;;;;19.73;62.92;100942.34;1721401;78;26705;-77
2021/06/08 06:36:30;;;;;;;6.15;5.17;;;;;;;19.84;63.42;100946.42;1733599;78;27672;-76
2021/06/08 06:39:04;;;;;;;8.15;5.58;;;;;;;19.95;63.04;100942.83;1736420;80;25860;-76
2021/06/08 06:41:34;;;;;;;7.22;5.50;;;;;;;20.06;62.40;100941.70;1748209;78;26071;-77
2021/06/08 06:44:01;;;;;;;6.67;5.37;;;;;;;20.14;62.85;100946.23;1725660;78;25882;-77
2021/06/08 06:46:32;;;;;;;7.75;5.40;;;;;;;20.26;62.81;100944.86;1768941;78;25828;-77
2021/06/08 06:48:59;;;;;;;10.30;6.22;;;;;;;20.37;62.27;100937.19;1771938;78;27477;-77
2021/06/08 06:51:27;;;;;;;6.05;5.45;;;;;;;20.47;61.72;100940.09;1787224;78;25807;-79
2021/06/08 06:53:59;;;;;;;9.48;5.35;;;;;;;20.56;62.32;100936.75;1722488;80;25822;-78
2021/06/08 06:56:24;;;;;;;7.72;5.58;;;;;;;20.64;62.30;100939.61;1771861;78;26848;-76
2021/06/08 06:58:51;;;;;;;7.87;5.20;;;;;;;20.69;61.31;100941.91;1739041;80;25830;-76
2021/06/08 07:01:23;;;;;;;5.83;5.05;;;;;;;20.70;61.39;100933.17;1749466;78;27489;-76
2021/06/08 07:03:57;;;;;;;8.15;4.85;;;;;;;20.78;61.35;100931.97;1727228;80;26671;-76
2021/06/08 07:06:25;;;;;;;5.70;5.17;;;;;;;20.89;61.81;100929.72;1712591;81;25972;-77
2021/06/08 07:08:56;;;;;;;5.12;4.47;;;;;;;20.98;61.09;100929.05;1771838;78;26543;-79
2021/06/08 07:11:24;;;;;;;6.05;5.35;;;;;;;21.06;61.05;100927.33;1740732;78;25346;-78
2021/06/08 07:13:55;;;;;;;11.73;5.22;;;;;;;21.17;60.99;100920.95;1773450;78;27593;-78
2021/06/08 07:16:23;;;;;;;6.25;4.75;;;;;;;21.21;60.66;100931.64;1726887;78;26169;-78
2021/06/08 07:18:51;;;;;;;6.25;4.92;;;;;;;21.30;61.65;100927.42;1721697;80;25920;-77
2021/06/08 07:21:20;;;;;;;7.08;4.87;;;;;;;21.36;61.05;100926.98;1771699;78;25803;-77
2021/06/08 07:23:53;;;;;;;10.15;5.37;;;;;;;21.42;60.41;100925.98;1766578;78;25752;-78
2021/06/08 07:26:22;;;;;;;5.83;5.12;;;;;;;21.46;59.91;100920.31;1772143;78;28305;-78
2021/06/08 07:28:49;;;;;;;5.62;5.00;;;;;;;21.55;60.29;100927.53;1728546;78;25671;-78
2021/06/08 07:31:34;;;;;;;9.93;4.78;;;;;;;21.63;60.26;100932.02;1779378;78;25961;-77
2021/06/08 07:34:04;;;;;;;9.30;4.85;;;;;;;21.76;60.30;100926.73;1700147;80;26335;-78
2021/06/08 07:36:46;;;;;;;7.08;4.67;;;;;;;21.85;60.18;100933.44;1768226;78;25684;-77
2021/06/08 07:39:33;;;;;;;5.55;5.05;;;;;;;21.94;59.65;100932.73;1730659;80;27476;-77
2021/06/08 07:42:11;;;;;;;5.17;4.37;;;;;;;22.02;60.35;100933.68;1770579;78;25997;-77
2021/06/08 07:44:52;;;;;;;7.20;4.80;;;;;;;22.12;58.97;100932.97;1769954;78;25769;-78
2021/06/08 07:47:22;;;;;;;9.78;4.60;;;;;;;22.16;58.90;100933.57;1769559;78;25857;-78
2021/06/08 07:49:51;;;;;;;6.05;4.58;;;;;;;22.28;59.09;100936.70;1735657;78;26331;-78
2021/06/08 07:52:19;;;;;;;7.25;4.45;;;;;;;22.38;59.36;100931.36;1770336;78;28305;-77
2021/06/08 07:54:48;;;;;;;5.42;4.80;;;;;;;22.44;59.01;100932.52;1735910;80;25766;-78
2021/06/08 07:57:15;;;;;;;7.15;4.87;;;;;;;22.51;59.09;100937.25;1765818;80;25868;-77
2021/06/08 07:59:42;;;;;;;5.35;4.80;;;;;;;22.59;58.96;100939.55;1715820;80;25968;-77
2021/06/08 08:02:10;;;;;;;5.12;4.62;;;;;;;22.66;58.71;100934.71;1785086;78;25864;-77
2021/06/08 08:04:40;;;;;;;5.28;4.53;;;;;;;22.73;58.24;100940.77;1776612;78;27597;-77
2021/06/08 08:07:08;;;;;;;8.37;4.60;;;;;;;22.74;57.92;100945.69;1726721;78;26006;-77
2021/06/08 08:09:36;;;;;;;6.25;4.65;;;;;;;22.79;58.16;100940.30;1747753;78;25874;-78
2021/06/08 08:12:05;;;;;;;8.93;5.08;;;;;;;22.90;58.41;100943.41;1770359;78;25826;-78
2021/06/08 08:14:32;;;;;;;4.67;3.87;;;;;;;22.98;57.74;100942.39;1776029;78;25823;-78
2021/06/08 08:17:00;;;;;;;4.87;4.30;;;;;;;23.09;57.55;100941.11;1734666;78;27548;-78
2021/06/08 08:19:27;;;;;;;6.05;4.78;;;;;;;23.14;56.85;100937.06;1740809;80;26583;-78
2021/06/08 08:21:54;;;;;;;9.88;4.22;;;;;;;23.24;57.16;100942.06;1769630;78;25832;-77
2021/06/08 08:24:21;;;;;;;5.92;4.37;;;;;;;23.35;57.72;100945.16;1746610;80;25863;-78
2021/06/08 08:26:48;;;;;;;6.60;4.50;;;;;;;23.41;57.07;100945.50;1724444;78;25854;-78
2021/06/08 08:29:15;;;;;;;7.10;4.60;;;;;;;23.49;57.16;100937.34;1741169;78;27493;-78
2021/06/08 08:31:42;;;;;;;9.73;5.17;;;;;;;23.54;56.42;100934.65;1775381;78;25814;-78
2021/06/08 08:34:09;;;;;;;5.05;4.53;;;;;;;23.61;56.58;100938.78;1777103;78;25811;-78
2021/06/08 08:36:38;;;;;;;8.50;4.45;;;;;;;23.66;55.91;100937.45;1728629;78;26509;-78
2021/06/08 08:39:09;;;;;;;9.08;4.05;;;;;;;23.65;54.76;100937.73;1745720;79;26070;-78
2021/06/08 08:41:37;;;;;;;5.35;4.33;;;;;;;23.69;55.33;100937.48;1769251;80;27447;-76
2021/06/08 08:44:06;;;;;;;6.97;4.67;;;;;;;23.80;55.60;100931.52;1779339;78;25700;-76
2021/06/08 08:46:34;;;;;;;4.30;3.42;;;;;;;23.87;54.68;100936.18;1732361;80;25821;-77
2021/06/08 08:49:01;;;;;;;4.87;3.02;;;;;;;23.87;52.75;100946.59;1724120;80;27301;-76
2021/06/08 08:51:30;;;;;;;4.75;3.65;;;;;;;23.91;52.18;100941.42;1766074;78;26544;-77
2021/06/08 08:54:00;;;;;;;3.70;3.30;;;;;;;23.91;52.36;100935.38;1775179;78;28120;-77
2021/06/08 08:56:37;;;;;;;4.42;3.45;;;;;;;23.93;51.32;100938.68;1733797;78;25946;-76
2021/06/08 08:59:09;;;;;;;7.03;3.17;;;;;;;23.93;51.92;100935.94;1749416;78;25864;-77
2021/06/08 09:01:38;;;;;;;5.78;3.77;;;;;;;24.01;51.96;100931.35;1777199;78;25812;-77
2021/06/08 09:04:07;;;;;;;7.05;3.47;;;;;;;24.04;51.35;100932.20;1775547;78;25727;-77
2021/06/08 09:06:36;;;;;;;7.45;3.22;;;;;;;24.11;51.25;100929.22;1749616;78;27525;-77
2021/06/08 09:09:06;;;;;;;7.95;3.40;;;;;;;24.13;51.29;100936.08;1764521;80;25852;-76
2021/06/08 09:11:39;;;;;;;5.85;3.72;;;;;;;24.15;51.88;100929.78;1768006;80;26253;-77
2021/06/08 09:14:08;;;;;;;3.83;3.52;;;;;;;24.27;52.35;100934.47;1775003;78;25785;-77
2021/06/08 09:16:36;;;;;;;8.60;3.75;;;;;;;24.36;52.12;100924.66;1757322;80;25989;-76
2021/06/08 09:19:07;;;;;;;11.18;4.05;;;;;;;24.49;51.95;100926.05;1702451;80;27559;-77
2021/06/08 09:21:38;;;;;;;8.00;3.80;;;;;;;24.50;51.83;100915.38;1768678;78;25832;-76
2021/06/08 09:24:26;;;;;;;5.15;3.80;;;;;;;24.56;51.06;100921.69;1772133;78;25754;-77
2021/06/08 09:27:07;;;;;;;9.28;4.42;;;;;;;24.57;51.95;100918.70;1769120;78;25827;-76
2021/06/08 09:29:43;;;;;;;9.78;3.62;;;;;;;24.60;50.60;100914.56;1742179;80;25815;-77
2021/06/08 09:32:26;;;;;;;6.33;3.50;;;;;;;24.51;49.97;100921.13;1771477;78;28489;-76
2021/06/08 09:35:03;;;;;;;6.83;3.75;;;;;;;24.37;50.68;100920.84;1771813;78;25932;-77
2021/06/08 09:37:45;;;;;;;7.12;3.85;;;;;;;24.28;50.67;100927.92;1752878;78;25794;-77
2021/06/08 09:40:22;;;;;;;4.55;3.35;;;;;;;24.27;49.91;100924.89;1766436;80;25837;-76
2021/06/08 09:43:10;;;;;;;5.20;3.70;;;;;;;24.25;50.46;100918.06;1769405;80;26258;-77
2021/06/08 09:45:49;;;;;;;12.13;3.98;;;;;;;24.31;50.83;100916.45;1725014;81;27487;-76
2021/06/08 09:48:17;;;;;;;7.62;3.60;;;;;;;24.40;51.17;100908.53;1661682;83;25916;-77
2021/06/08 09:50:52;;;;;;;6.40;3.42;;;;;;;24.42;50.13;100903.03;1676186;81;26003;-76
2021/06/08 09:53:28;;;;;;;4.65;3.75;;;;;;;24.48;50.28;100912.92;1707740;81;25803;-77
2021/06/08 09:56:01;;;;;;;6.50;3.30;;;;;;;24.56;50.21;100903.88;1711666;82;25928;-77
2021/06/08 09:58:30;;;;;;;6.35;3.85;;;;;;;24.70;50.45;100902.27;1716758;78;27504;-77
2021/06/08 10:01:20;;;;;;;4.55;3.72;;;;;;;24.77;50.28;100913.26;1725693;80;26132;-77
2021/06/08 10:03:57;;;;;;;5.80;3.45;;;;;;;24.78;49.31;100905.33;1778994;78;25770;-77
2021/06/08 10:06:39;;;;;;;5.25;3.65;;;;;;;24.76;49.31;100898.47;1774239;78;26478;-77
2021/06/08 10:09:10;;;;;;;5.58;3.60;;;;;;;24.72;49.03;100901.45;1745821;78;25992;-77
2021/06/08 10:11:40;;;;;;;6.22;3.42;;;;;;;24.68;48.77;100901.73;1774358;78;28115;-77
2021/06/08 10:14:13;;;;;;;6.50;3.47;;;;;;;24.68;48.68;100899.78;1776168;78;25805;-77
2021/06/08 10:16:41;;;;;;;4.15;3.55;;;;;;;24.71;48.68;100897.05;1772058;78;25893;-77
2021/06/08 10:19:10;;;;;;;6.28;3.65;;;;;;;24.90;51.19;100900.93;1740484;78;25909;-77
2021/06/08 10:21:48;;;;;;;5.78;3.42;;;;;;;25.08;49.68;100894.91;1739500;78;25924;-77
2021/06/08 10:24:19;;;;;;;6.40;3.02;;;;;;;25.14;48.90;100886.95;1771954;80;27549;-77
2021/06/08 10:26:51;;;;;;;8.35;3.42;;;;;;;25.25;49.48;100892.70;1756993;78;25382;-77
2021/06/08 10:29:21;;;;;;;11.60;3.50;;;;;;;25.20;48.46;100900.92;1719755;80;25723;-77
2021/06/08 10:31:49;;;;;;;3.67;3.10;;;;;;;25.05;48.10;100900.94;1724729;78;26444;-77
2021/06/08 10:34:16;;;;;;;7.22;4.00;;;;;;;24.95;48.17;100899.58;1773557;78;25762;-77
2021/06/08 10:36:45;;;;;;;6.53;3.50;;;;;;;24.85;48.55;100894.90;1773852;78;28212;-78
2021/06/08 10:39:16;;;;;;;5.72;3.42;;;;;;;24.81;48.79;100892.97;1750454;80;25900;-77
2021/06/08 10:41:45;;;;;;;10.28;3.25;;;;;;;24.91;49.75;100891.09;1752285;80;25981;-77
2021/06/08 10:44:31;;;;;;;7.37;3.45;;;;;;;25.10;48.09;100889.98;1774255;78;26595;-77
2021/06/08 10:47:03;;;;;;;5.78;3.50;;;;;;;25.18;47.74;100893.52;1773659;78;26566;-77
2021/06/08 10:49:37;;;;;;;4.33;3.27;;;;;;;25.33;47.38;100887.20;1716673;80;28404;-78
2021/06/08 10:52:12;;;;;;;5.22;3.47;;;;;;;25.44;47.95;100887.48;1733087;78;25861;-77
2021/06/08 10:54:48;;;;;;;7.33;3.87;;;;;;;25.57;48.11;100884.16;1764780;78;26620;-77
2021/06/08 10:57:17;;;;;;;5.65;3.42;;;;;;;25.59;47.38;100890.19;1789732;78;26014;-77
2021/06/08 10:59:53;;;;;;;9.93;3.37;;;;;;;25.45;46.78;100885.83;1764165;78;25784;-77
2021/06/08 11:02:48;;;;;;;8.25;3.85;;;;;;;25.27;46.44;100878.17;1721962;80;28154;-77
2021/06/08 11:05:18;;;;;;;6.50;3.58;;;;;;;25.11;46.80;100879.27;1736568;80;25915;-77
2021/06/08 11:07:51;;;;;;;9.18;3.65;;;;;;;25.02;47.61;100875.46;1774920;78;31317;-76
2021/06/08 11:10:33;;;;;;;5.75;3.67;;;;;;;25.05;47.03;100873.52;1750622;78;25867;-78
2021/06/08 11:13:17;;;;;;;11.90;3.67;;;;;;;25.14;47.67;100874.62;1778587;78;25886;-76
2021/06/08 11:15:47;;;;;;;6.47;3.33;;;;;;;25.16;47.18;100866.94;1775719;79;27419;-78
2021/06/08 11:18:37;;;;;;;7.15;3.60;;;;;;;25.19;47.03;100871.31;1771605;78;25813;-78
2021/06/08 11:21:12;;;;;;;6.42;3.85;;;;;;;25.33;46.91;100869.37;1741461;78;26055;-76
2021/06/08 11:23:42;;;;;;;10.45;3.50;;;;;;;25.52;46.58;100857.56;1771198;78;26432;-77
2021/06/08 11:26:12;;;;;;;3.98;3.33;;;;;;;25.79;46.10;100859.38;1754134;80;25965;-76
2021/06/08 11:28:48;;;;;;;6.40;3.10;;;;;;;26.06;45.95;100865.86;1769911;78;28210;-76
2021/06/08 11:31:18;;;;;;;8.98;3.75;;;;;;;26.18;45.25;100860.04;1736102;80;25808;-76
2021/06/08 11:33:48;;;;;;;3.77;3.30;;;;;;;26.28;44.98;100854.51;1730874;80;33038;-77
2021/06/08 11:36:28;;;;;;;4.12;3.72;;;;;;;26.35;44.44;100864.61;1749660;80;26558;-77
2021/06/08 11:39:21;;;;;;;4.78;3.02;;;;;;;26.20;44.34;100863.32;1775032;78;26526;-77